Impacts TAF Board INFO
FOR SITUATIONAL AWARENESS. NOT TO BE USED FOR FLIGHT PLANNING PURPOSES.
IDs:

KBOS - Boston/Logan Intl, MA, US

Issued at 0303 UTC 22 Nov 2017
Updated at 0331 UTC 22 Nov 2017
Potential Impact None Slight Moderate High
Time<<22/16Z 22/17Z 22/18Z 22/19Z 22/20Z 22/21Z 22/22Z 22/23Z 23/00Z 23/01Z 23/02Z 23/03Z 23/04Z>>
Type PRVL PRVL PRVL PRVL PRVL PRVL PRVL PRVL PRVL PRVL PRVL PRVL PRVL
VIS 3 3 >6 >6 >6 >6 >6 >6 >6 >6 >6 >6 >6
CIG 8 8 15 15 15 -- -- -- -- -- -- -- --
Cover OVC OVC BKN BKN BKN SCT SCT FEW FEW FEW FEW FEW FEW
FltCat IFR IFR MVFR MVFR MVFR VFR VFR VFR VFR VFR VFR VFR VFR
WX -RA BR -RA BR -RA -RA -RA -- -- -- -- -- -- -- --
WDir 270 270 320 320 320 310 310 320 320 320 320 320 320
WSpd 4 4 6 6 6 8 8 11 11 11 11 11 11
WGst -- -- -- -- -- -- -- 21 21 21 21 21 21

Raw TAF
KBOS 220303Z 2203/2306 22012KT P6SM FEW250
  FM220900 20005KT P6SM -RA SCT025 BKN090
  FM221200 18005KT 5SM RA BR OVC025
  FM221400 24004KT 2SM RA BR OVC010
  FM221600 27004KT 3SM -RA BR OVC008
  FM221800 32006KT P6SM -RA BKN015
  FM222100 31008KT P6SM SCT050
  FM222300 32011G21KT P6SM FEW200


METAR Board
Radar Display
Forecast Discussion

FOR SITUATIONAL AWARENESS. NOT TO BE USED FOR FLIGHT PLANNING PURPOSES.